sensor_id;sensor_type;location;lat;lon;timestamp;pressure;altitude;pressure_sealevel;temperature;humidity
27685;BME280;46113;50.130;8.526;2022-07-03T04:17:16;100221.34;;;16.13;46.74
27685;BME280;46113;50.130;8.526;2022-07-03T04:19:43;100221.56;;;16.10;47.06
27685;BME280;46113;50.130;8.526;2022-07-03T04:22:11;100222.53;;;16.09;46.64
27685;BME280;46113;50.130;8.526;2022-07-03T04:24:37;100224.28;;;16.23;46.29
27685;BME280;46113;50.130;8.526;2022-07-03T04:27:04;100219.13;;;16.20;46.47
27685;BME280;46113;50.130;8.526;2022-07-03T04:29:31;100219.22;;;16.18;46.05
27685;BME280;46113;50.130;8.526;2022-07-03T04:31:57;100228.00;;;16.20;46.62
27685;BME280;46113;50.130;8.526;2022-07-03T04:34:24;100231.50;;;16.21;46.56
27685;BME280;46113;50.130;8.526;2022-07-03T04:36:50;100222.34;;;16.25;46.64
27685;BME280;46113;50.130;8.526;2022-07-03T04:39:17;100230.56;;;16.22;46.94
27685;BME280;46113;50.130;8.526;2022-07-03T04:41:43;100227.78;;;16.23;47.39
27685;BME280;46113;50.130;8.526;2022-07-03T04:44:10;100233.69;;;16.28;47.19
27685;BME280;46113;50.130;8.526;2022-07-03T04:46:36;100236.59;;;16.38;47.62
27685;BME280;46113;50.130;8.526;2022-07-03T04:49:03;100234.56;;;16.42;47.79
27685;BME280;46113;50.130;8.526;2022-07-03T04:51:30;100234.38;;;16.45;47.88
27685;BME280;46113;50.130;8.526;2022-07-03T04:53:57;100230.72;;;16.46;47.58
27685;BME280;46113;50.130;8.526;2022-07-03T04:56:23;100228.06;;;16.46;47.69
27685;BME280;46113;50.130;8.526;2022-07-03T04:58:50;100233.75;;;16.54;47.90
27685;BME280;46113;50.130;8.526;2022-07-03T05:01:16;100235.09;;;16.47;47.88
27685;BME280;46113;50.130;8.526;2022-07-03T05:03:43;100231.63;;;16.60;47.99
27685;BME280;46113;50.130;8.526;2022-07-03T05:06:10;100235.22;;;16.59;48.09
27685;BME280;46113;50.130;8.526;2022-07-03T05:08:36;100239.31;;;16.64;47.89
27685;BME280;46113;50.130;8.526;2022-07-03T05:11:03;100240.81;;;16.68;48.00
27685;BME280;46113;50.130;8.526;2022-07-03T05:13:29;100238.97;;;16.69;47.59
27685;BME280;46113;50.130;8.526;2022-07-03T05:15:56;100242.72;;;16.66;47.44
27685;BME280;46113;50.130;8.526;2022-07-03T05:18:23;100247.22;;;16.66;46.62
27685;BME280;46113;50.130;8.526;2022-07-03T05:20:49;100250.72;;;16.66;46.51
27685;BME280;46113;50.130;8.526;2022-07-03T05:23:16;100252.16;;;16.72;47.18
27685;BME280;46113;50.130;8.526;2022-07-03T05:25:42;100257.03;;;16.65;47.24
27685;BME280;46113;50.130;8.526;2022-07-03T05:28:12;100251.97;;;16.75;46.77
27685;BME280;46113;50.130;8.526;2022-07-03T05:30:38;100253.03;;;16.73;47.07
27685;BME280;46113;50.130;8.526;2022-07-03T05:33:05;100255.44;;;16.63;47.50
27685;BME280;46113;50.130;8.526;2022-07-03T05:35:32;100254.59;;;16.62;47.78
27685;BME280;46113;50.130;8.526;2022-07-03T05:37:58;100257.03;;;16.65;47.70
27685;BME280;46113;50.130;8.526;2022-07-03T05:40:25;100263.84;;;16.84;47.16
27685;BME280;46113;50.130;8.526;2022-07-03T05:42:51;100257.84;;;16.93;47.66
27685;BME280;46113;50.130;8.526;2022-07-03T05:45:19;100258.50;;;17.10;47.28
27685;BME280;46113;50.130;8.526;2022-07-03T05:47:46;100255.09;;;16.95;47.82
27685;BME280;46113;50.130;8.526;2022-07-03T05:50:12;100259.03;;;17.15;46.99
27685;BME280;46113;50.130;8.526;2022-07-03T05:52:39;100257.09;;;17.30;46.56
27685;BME280;46113;50.130;8.526;2022-07-03T05:55:06;100261.06;;;16.99;46.96
27685;BME280;46113;50.130;8.526;2022-07-03T05:57:32;100243.72;;;17.30;46.04
27685;BME280;46113;50.130;8.526;2022-07-03T06:00:00;100247.78;;;17.36;46.06
27685;BME280;46113;50.130;8.526;2022-07-03T06:02:26;100251.28;;;17.50;45.75
27685;BME280;46113;50.130;8.526;2022-07-03T06:04:53;100253.88;;;17.38;46.39
27685;BME280;46113;50.130;8.526;2022-07-03T06:07:20;100255.47;;;17.41;46.28
27685;BME280;46113;50.130;8.526;2022-07-03T06:09:47;100261.06;;;17.25;46.50
27685;BME280;46113;50.130;8.526;2022-07-03T06:12:14;100260.84;;;17.54;46.02
27685;BME280;46113;50.130;8.526;2022-07-03T06:14:41;100258.44;;;17.62;45.75
27685;BME280;46113;50.130;8.526;2022-07-03T06:17:08;100258.19;;;17.78;45.73
27685;BME280;46113;50.130;8.526;2022-07-03T06:19:34;100264.25;;;17.93;45.72
27685;BME280;46113;50.130;8.526;2022-07-03T06:22:01;100258.59;;;17.60;46.34
27685;BME280;46113;50.130;8.526;2022-07-03T06:24:28;100254.28;;;17.71;46.03
27685;BME280;46113;50.130;8.526;2022-07-03T06:26:54;100255.28;;;18.30;44.58
27685;BME280;46113;50.130;8.526;2022-07-03T06:29:21;100254.13;;;18.10;45.61
27685;BME280;46113;50.130;8.526;2022-07-03T06:31:47;100255.16;;;17.96;45.37
27685;BME280;46113;50.130;8.526;2022-07-03T06:34:14;100243.63;;;18.07;45.92
27685;BME280;46113;50.130;8.526;2022-07-03T06:36:40;100252.00;;;18.26;45.57
27685;BME280;46113;50.130;8.526;2022-07-03T06:39:07;100244.25;;;18.10;45.53
27685;BME280;46113;50.130;8.526;2022-07-03T06:41:33;100244.59;;;18.30;45.70
27685;BME280;46113;50.130;8.526;2022-07-03T06:44:00;100243.97;;;18.51;44.67
27685;BME280;46113;50.130;8.526;2022-07-03T06:46:27;100243.59;;;18.31;45.44
27685;BME280;46113;50.130;8.526;2022-07-03T06:48:53;100246.75;;;18.25;45.82
27685;BME280;46113;50.130;8.526;2022-07-03T06:51:33;100246.78;;;18.49;45.40
27685;BME280;46113;50.130;8.526;2022-07-03T06:54:00;100245.41;;;19.02;44.10
27685;BME280;46113;50.130;8.526;2022-07-03T06:56:27;100253.06;;;18.73;44.74
27685;BME280;46113;50.130;8.526;2022-07-03T06:58:56;100249.22;;;19.11;44.24
27685;BME280;46113;50.130;8.526;2022-07-03T07:01:23;100248.44;;;18.86;44.79
27685;BME280;46113;50.130;8.526;2022-07-03T07:03:50;100247.72;;;18.84;44.72
27685;BME280;46113;50.130;8.526;2022-07-03T07:06:16;100245.03;;;18.96;44.73
27685;BME280;46113;50.130;8.526;2022-07-03T07:08:43;100246.91;;;19.52;43.63
27685;BME280;46113;50.130;8.526;2022-07-03T07:11:10;100251.66;;;19.26;43.76
27685;BME280;46113;50.130;8.526;2022-07-03T07:13:37;100253.72;;;19.45;43.69
27685;BME280;46113;50.130;8.526;2022-07-03T07:16:04;100253.38;;;19.38;44.30
27685;BME280;46113;50.130;8.526;2022-07-03T07:18:30;100251.16;;;19.32;44.14
27685;BME280;46113;50.130;8.526;2022-07-03T07:20:57;100254.34;;;19.60;44.08
27685;BME280;46113;50.130;8.526;2022-07-03T07:23:24;100254.91;;;19.75;43.36
27685;BME280;46113;50.130;8.526;2022-07-03T07:25:50;100264.69;;;19.65;43.16
27685;BME280;46113;50.130;8.526;2022-07-03T07:28:17;100259.47;;;19.52;43.51
27685;BME280;46113;50.130;8.526;2022-07-03T07:30:44;100270.94;;;19.54;43.62
27685;BME280;46113;50.130;8.526;2022-07-03T07:33:10;100265.53;;;19.88;43.57
27685;BME280;46113;50.130;8.526;2022-07-03T07:35:37;100265.53;;;19.77;43.02
27685;BME280;46113;50.130;8.526;2022-07-03T07:38:03;100260.63;;;19.93;43.41
27685;BME280;46113;50.130;8.526;2022-07-03T07:40:34;100268.34;;;20.31;42.87
27685;BME280;46113;50.130;8.526;2022-07-03T07:43:00;100274.19;;;20.36;43.00
27685;BME280;46113;50.130;8.526;2022-07-03T07:45:27;100262.53;;;20.47;42.93
27685;BME280;46113;50.130;8.526;2022-07-03T07:47:53;100268.03;;;20.13;43.51
27685;BME280;46113;50.130;8.526;2022-07-03T07:50:20;100271.78;;;20.21;43.49
27685;BME280;46113;50.130;8.526;2022-07-03T07:52:46;100265.31;;;20.57;42.52
27685;BME280;46113;50.130;8.526;2022-07-03T07:55:13;100258.03;;;20.69;42.23
27685;BME280;46113;50.130;8.526;2022-07-03T07:57:40;100254.72;;;21.08;41.84
27685;BME280;46113;50.130;8.526;2022-07-03T08:00:12;100259.44;;;20.51;42.13
27685;BME280;46113;50.130;8.526;2022-07-03T08:02:40;100254.63;;;20.88;41.82
27685;BME280;46113;50.130;8.526;2022-07-03T08:05:26;100248.13;;;20.69;42.27
27685;BME280;46113;50.130;8.526;2022-07-03T08:08:06;100252.50;;;20.91;41.50
27685;BME280;46113;50.130;8.526;2022-07-03T08:10:39;100245.25;;;20.61;40.82
27685;BME280;46113;50.130;8.526;2022-07-03T08:13:06;100245.44;;;21.22;40.46
27685;BME280;46113;50.130;8.526;2022-07-03T08:15:33;100249.59;;;21.67;40.12
27685;BME280;46113;50.130;8.526;2022-07-03T08:18:01;100246.00;;;21.47;39.94
27685;BME280;46113;50.130;8.526;2022-07-03T08:20:28;100248.72;;;21.56;40.05
27685;BME280;46113;50.130;8.526;2022-07-03T08:22:55;100249.16;;;21.62;39.95
27685;BME280;46113;50.130;8.526;2022-07-03T08:25:21;100251.03;;;21.71;39.45
27685;BME280;46113;50.130;8.526;2022-07-03T08:27:48;100245.59;;;22.02;39.26
27685;BME280;46113;50.130;8.526;2022-07-03T08:30:15;100247.09;;;21.85;40.31
27685;BME280;46113;50.130;8.526;2022-07-03T08:32:48;100242.44;;;22.36;38.64
27685;BME280;46113;50.130;8.526;2022-07-03T08:35:15;100238.78;;;22.38;38.92
27685;BME280;46113;50.130;8.526;2022-07-03T08:37:42;100244.03;;;22.29;38.93
27685;BME280;46113;50.130;8.526;2022-07-03T08:40:10;100234.81;;;22.22;38.72
27685;BME280;46113;50.130;8.526;2022-07-03T08:42:38;100230.69;;;21.98;38.46
27685;BME280;46113;50.130;8.526;2022-07-03T08:45:13;100239.34;;;22.31;38.66
27685;BME280;46113;50.130;8.526;2022-07-03T08:47:42;100232.69;;;22.65;37.94
27685;BME280;46113;50.130;8.526;2022-07-03T08:50:10;100233.34;;;22.77;38.49
27685;BME280;46113;50.130;8.526;2022-07-03T08:52:38;100235.50;;;22.44;37.59
27685;BME280;46113;50.130;8.526;2022-07-03T08:55:06;100234.25;;;22.68;36.77
27685;BME280;46113;50.130;8.526;2022-07-03T08:57:33;100240.13;;;22.91;36.76
27685;BME280;46113;50.130;8.526;2022-07-03T09:00:04;100228.69;;;22.69;37.05
27685;BME280;46113;50.130;8.526;2022-07-03T09:02:32;100235.81;;;23.08;35.87
27685;BME280;46113;50.130;8.526;2022-07-03T09:05:00;100233.97;;;23.47;35.71
27685;BME280;46113;50.130;8.526;2022-07-03T09:07:35;100235.31;;;23.23;35.99
27685;BME280;46113;50.130;8.526;2022-07-03T09:10:10;100226.59;;;23.49;35.61
27685;BME280;46113;50.130;8.526;2022-07-03T09:12:37;100232.94;;;23.76;35.80
27685;BME280;46113;50.130;8.526;2022-07-03T09:15:06;100237.41;;;23.01;35.61
27685;BME280;46113;50.130;8.526;2022-07-03T09:17:33;100236.06;;;23.53;35.53
27685;BME280;46113;50.130;8.526;2022-07-03T09:20:05;100226.03;;;23.91;34.52
27685;BME280;46113;50.130;8.526;2022-07-03T09:22:34;100229.50;;;24.02;34.73
27685;BME280;46113;50.130;8.526;2022-07-03T09:25:12;100222.13;;;23.76;35.15
27685;BME280;46113;50.130;8.526;2022-07-03T09:27:52;100224.03;;;23.93;33.94
27685;BME280;46113;50.130;8.526;2022-07-03T09:30:19;100225.78;;;23.85;34.06
27685;BME280;46113;50.130;8.526;2022-07-03T09:32:47;100218.72;;;24.02;33.74
27685;BME280;46113;50.130;8.526;2022-07-03T09:35:22;100213.16;;;24.03;33.87
27685;BME280;46113;50.130;8.526;2022-07-03T09:38:01;100217.25;;;23.89;34.33
27685;BME280;46113;50.130;8.526;2022-07-03T09:40:52;100223.50;;;23.90;33.36
27685;BME280;46113;50.130;8.526;2022-07-03T09:43:30;100220.09;;;24.06;32.99
27685;BME280;46113;50.130;8.526;2022-07-03T09:45:59;100218.09;;;24.97;31.10
27685;BME280;46113;50.130;8.526;2022-07-03T09:48:40;100216.34;;;24.88;30.09
27685;BME280;46113;50.130;8.526;2022-07-03T09:51:22;100223.41;;;24.81;29.94
27685;BME280;46113;50.130;8.526;2022-07-03T09:56:34;100210.22;;;25.47;29.31
27685;BME280;46113;50.130;8.526;2022-07-03T09:59:11;100210.53;;;25.44;28.15
27685;BME280;46113;50.130;8.526;2022-07-03T10:01:43;100213.81;;;25.64;28.19
27685;BME280;46113;50.130;8.526;2022-07-03T10:06:55;100219.97;;;25.32;27.52
27685;BME280;46113;50.130;8.526;2022-07-03T10:09:30;100211.53;;;26.44;27.17
27685;BME280;46113;50.130;8.526;2022-07-03T10:11:58;100215.06;;;26.62;27.14
27685;BME280;46113;50.130;8.526;2022-07-03T10:14:30;100211.03;;;26.08;27.14
27685;BME280;46113;50.130;8.526;2022-07-03T10:16:57;100213.88;;;26.64;26.93
27685;BME280;46113;50.130;8.526;2022-07-03T10:19:27;100212.31;;;25.27;27.79
27685;BME280;46113;50.130;8.526;2022-07-03T10:22:00;100212.63;;;25.16;27.38
27685;BME280;46113;50.130;8.526;2022-07-03T10:24:28;100212.28;;;25.62;27.29
27685;BME280;46113;50.130;8.526;2022-07-03T10:26:56;100200.19;;;26.49;26.26
27685;BME280;46113;50.130;8.526;2022-07-03T10:29:25;100208.34;;;26.33;26.27
27685;BME280;46113;50.130;8.526;2022-07-03T10:31:56;100218.50;;;26.39;26.12
27685;BME280;46113;50.130;8.526;2022-07-03T10:34:26;100207.63;;;26.55;25.73
27685;BME280;46113;50.130;8.526;2022-07-03T10:37:00;100200.31;;;26.81;25.44
27685;BME280;46113;50.130;8.526;2022-07-03T10:39:48;100205.94;;;26.21;26.74
27685;BME280;46113;50.130;8.526;2022-07-03T10:42:47;100205.28;;;27.17;26.03
27685;BME280;46113;50.130;8.526;2022-07-03T10:45:33;100196.78;;;26.06;27.47
27685;BME280;46113;50.130;8.526;2022-07-03T10:47:59;100198.50;;;26.32;27.34
27685;BME280;46113;50.130;8.526;2022-07-03T10:50:26;100197.66;;;26.48;26.98
27685;BME280;46113;50.130;8.526;2022-07-03T10:52:53;100195.09;;;26.21;26.96
27685;BME280;46113;50.130;8.526;2022-07-03T10:56:01;100193.25;;;26.55;26.05
27685;BME280;46113;50.130;8.526;2022-07-03T10:58:29;100200.16;;;26.74;26.52
27685;BME280;46113;50.130;8.526;2022-07-03T11:00:59;100198.31;;;26.58;26.46
27685;BME280;46113;50.130;8.526;2022-07-03T11:03:55;100185.13;;;26.05;26.14
27685;BME280;46113;50.130;8.526;2022-07-03T11:09:10;100190.13;;;27.31;23.98
27685;BME280;46113;50.130;8.526;2022-07-03T11:11:44;100187.09;;;27.26;24.27
27685;BME280;46113;50.130;8.526;2022-07-03T11:14:25;100182.19;;;27.21;23.49
27685;BME280;46113;50.130;8.526;2022-07-03T11:17:20;100180.53;;;27.52;24.12
27685;BME280;46113;50.130;8.526;2022-07-03T11:19:49;100175.09;;;27.75;23.81
27685;BME280;46113;50.130;8.526;2022-07-03T11:22:57;100174.53;;;27.25;23.53
27685;BME280;46113;50.130;8.526;2022-07-03T11:25:26;100184.66;;;27.00;23.39
27685;BME280;46113;50.130;8.526;2022-07-03T11:28:02;100178.34;;;26.51;23.01
27685;BME280;46113;50.130;8.526;2022-07-03T11:30:29;100168.75;;;26.80;22.60
27685;BME280;46113;50.130;8.526;2022-07-03T11:32:58;100164.00;;;26.82;22.63
27685;BME280;46113;50.130;8.526;2022-07-03T11:35:48;100156.38;;;27.26;22.19
27685;BME280;46113;50.130;8.526;2022-07-03T11:38:24;100161.63;;;26.95;23.46
27685;BME280;46113;50.130;8.526;2022-07-03T11:40:52;100156.19;;;26.79;24.03
27685;BME280;46113;50.130;8.526;2022-07-03T11:43:19;100152.56;;;27.43;24.04
27685;BME280;46113;50.130;8.526;2022-07-03T11:45:47;100150.47;;;27.77;23.61
27685;BME280;46113;50.130;8.526;2022-07-03T11:48:25;100152.91;;;28.34;23.14
27685;BME280;46113;50.130;8.526;2022-07-03T11:51:03;100148.91;;;28.06;23.19
27685;BME280;46113;50.130;8.526;2022-07-03T11:53:33;100153.28;;;28.31;23.11
27685;BME280;46113;50.130;8.526;2022-07-03T11:56:07;100153.00;;;27.55;23.35
27685;BME280;46113;50.130;8.526;2022-07-03T11:58:44;100138.34;;;27.33;24.04
27685;BME280;46113;50.130;8.526;2022-07-03T12:01:27;100146.84;;;27.61;23.73
27685;BME280;46113;50.130;8.526;2022-07-03T12:06:44;100143.91;;;28.33;22.66
27685;BME280;46113;50.130;8.526;2022-07-03T12:09:13;100142.78;;;28.43;22.80
27685;BME280;46113;50.130;8.526;2022-07-03T12:11:40;100150.38;;;28.32;22.53
27685;BME280;46113;50.130;8.526;2022-07-03T12:14:07;100135.66;;;29.02;22.18
27685;BME280;46113;50.130;8.526;2022-07-03T12:16:34;100138.09;;;27.74;23.49
27685;BME280;46113;50.130;8.526;2022-07-03T12:19:05;100127.91;;;28.53;22.93
27685;BME280;46113;50.130;8.526;2022-07-03T12:21:38;100128.19;;;28.89;23.16
27685;BME280;46113;50.130;8.526;2022-07-03T12:24:09;100120.81;;;28.29;23.80
27685;BME280;46113;50.130;8.526;2022-07-03T12:26:36;100128.06;;;28.52;23.81
27685;BME280;46113;50.130;8.526;2022-07-03T12:29:16;100124.25;;;28.91;23.51
27685;BME280;46113;50.130;8.526;2022-07-03T12:32:01;100130.63;;;28.53;23.29
27685;BME280;46113;50.130;8.526;2022-07-03T12:35:25;100120.94;;;28.96;22.68
27685;BME280;46113;50.130;8.526;2022-07-03T12:42:56;100117.75;;;28.32;22.40
27685;BME280;46113;50.130;8.526;2022-07-03T12:45:57;100111.44;;;28.17;23.17
27685;BME280;46113;50.130;8.526;2022-07-03T12:48:24;100121.72;;;28.06;22.82
27685;BME280;46113;50.130;8.526;2022-07-03T12:50:51;100115.88;;;27.94;22.22
27685;BME280;46113;50.130;8.526;2022-07-03T12:53:32;100116.53;;;28.20;22.31
27685;BME280;46113;50.130;8.526;2022-07-03T12:56:06;100107.59;;;28.41;21.73
27685;BME280;46113;50.130;8.526;2022-07-03T12:58:35;100107.78;;;28.39;21.90
27685;BME280;46113;50.130;8.526;2022-07-03T13:01:31;100114.09;;;28.85;21.05
27685;BME280;46113;50.130;8.526;2022-07-03T13:04:00;100092.97;;;29.61;20.62
27685;BME280;46113;50.130;8.526;2022-07-03T13:06:27;100095.31;;;29.64;20.56
27685;BME280;46113;50.130;8.526;2022-07-03T13:09:04;100082.88;;;30.05;20.69
27685;BME280;46113;50.130;8.526;2022-07-03T13:11:38;100080.56;;;29.15;21.29
27685;BME280;46113;50.130;8.526;2022-07-03T13:14:08;100080.97;;;28.97;22.70
27685;BME280;46113;50.130;8.526;2022-07-03T13:16:46;100078.84;;;28.62;22.49
27685;BME280;46113;50.130;8.526;2022-07-03T13:19:20;100082.94;;;28.88;20.85
27685;BME280;46113;50.130;8.526;2022-07-03T13:21:50;100091.97;;;28.73;20.76
27685;BME280;46113;50.130;8.526;2022-07-03T13:24:20;100085.94;;;29.08;20.99
27685;BME280;46113;50.130;8.526;2022-07-03T13:26:50;100081.44;;;29.37;20.83
27685;BME280;46113;50.130;8.526;2022-07-03T13:29:53;100089.84;;;29.42;20.31
27685;BME280;46113;50.130;8.526;2022-07-03T13:32:20;100092.41;;;29.07;20.84
27685;BME280;46113;50.130;8.526;2022-07-03T13:34:46;100096.84;;;28.78;21.05
27685;BME280;46113;50.130;8.526;2022-07-03T13:37:31;100085.78;;;29.75;20.54
27685;BME280;46113;50.130;8.526;2022-07-03T13:40:30;100084.16;;;29.59;20.79
27685;BME280;46113;50.130;8.526;2022-07-03T13:42:57;100074.50;;;29.35;20.84
27685;BME280;46113;50.130;8.526;2022-07-03T13:45:24;100082.78;;;28.44;21.93
27685;BME280;46113;50.130;8.526;2022-07-03T13:47:54;100070.06;;;29.55;20.81
27685;BME280;46113;50.130;8.526;2022-07-03T13:50:48;100070.59;;;29.44;20.98
27685;BME280;46113;50.130;8.526;2022-07-03T13:53:18;100076.47;;;29.26;21.28
27685;BME280;46113;50.130;8.526;2022-07-03T13:55:45;100067.72;;;29.52;20.59
27685;BME280;46113;50.130;8.526;2022-07-03T13:58:12;100070.00;;;29.70;20.14
27685;BME280;46113;50.130;8.526;2022-07-03T14:00:41;100071.91;;;29.70;20.26
27685;BME280;46113;50.130;8.526;2022-07-03T14:03:08;100074.16;;;29.23;21.55
27685;BME280;46113;50.130;8.526;2022-07-03T14:05:37;100077.44;;;29.83;21.30
27685;BME280;46113;50.130;8.526;2022-07-03T14:08:05;100071.41;;;29.44;21.42
27685;BME280;46113;50.130;8.526;2022-07-03T14:10:32;100060.97;;;29.26;21.52
27685;BME280;46113;50.130;8.526;2022-07-03T14:12:58;100078.28;;;28.36;21.85
27685;BME280;46113;50.130;8.526;2022-07-03T14:15:25;100074.72;;;28.51;22.37
27685;BME280;46113;50.130;8.526;2022-07-03T14:17:52;100058.56;;;28.79;21.71
27685;BME280;46113;50.130;8.526;2022-07-03T14:20:19;100068.97;;;29.06;21.32
27685;BME280;46113;50.130;8.526;2022-07-03T14:22:45;100056.31;;;29.20;21.27
27685;BME280;46113;50.130;8.526;2022-07-03T14:25:16;100056.97;;;29.22;21.58
27685;BME280;46113;50.130;8.526;2022-07-03T14:27:43;100059.09;;;29.70;20.61
27685;BME280;46113;50.130;8.526;2022-07-03T14:30:28;100055.06;;;29.88;20.41
27685;BME280;46113;50.130;8.526;2022-07-03T14:36:54;100062.06;;;28.43;22.19
27685;BME280;46113;50.130;8.526;2022-07-03T14:39:20;100052.97;;;29.90;21.09
27685;BME280;46113;50.130;8.526;2022-07-03T14:41:47;100042.34;;;30.02;20.77
27685;BME280;46113;50.130;8.526;2022-07-03T14:44:15;100036.25;;;29.50;21.81
27685;BME280;46113;50.130;8.526;2022-07-03T14:47:13;100052.09;;;29.39;22.34
27685;BME280;46113;50.130;8.526;2022-07-03T14:49:41;100044.88;;;28.73;22.37
27685;BME280;46113;50.130;8.526;2022-07-03T14:52:07;100044.63;;;28.89;21.99
27685;BME280;46113;50.130;8.526;2022-07-03T14:54:34;100050.97;;;28.45;22.52
27685;BME280;46113;50.130;8.526;2022-07-03T14:57:06;100052.16;;;28.12;22.13
27685;BME280;46113;50.130;8.526;2022-07-03T15:02:22;100039.88;;;28.76;22.23
27685;BME280;46113;50.130;8.526;2022-07-03T15:05:07;100044.78;;;28.21;22.46
27685;BME280;46113;50.130;8.526;2022-07-03T15:10:32;100042.22;;;28.04;22.12
27685;BME280;46113;50.130;8.526;2022-07-03T15:13:00;100038.84;;;27.87;22.64
27685;BME280;46113;50.130;8.526;2022-07-03T15:15:29;100040.75;;;28.17;22.03
27685;BME280;46113;50.130;8.526;2022-07-03T15:18:04;100033.75;;;28.89;21.45
27685;BME280;46113;50.130;8.526;2022-07-03T15:20:33;100025.91;;;29.16;21.42
27685;BME280;46113;50.130;8.526;2022-07-03T15:23:03;100018.47;;;28.88;21.26
27685;BME280;46113;50.130;8.526;2022-07-03T15:25:32;100022.75;;;28.98;21.82
27685;BME280;46113;50.130;8.526;2022-07-03T15:28:14;100024.44;;;28.47;21.49
27685;BME280;46113;50.130;8.526;2022-07-03T15:30:50;100011.31;;;28.65;21.68
27685;BME280;46113;50.130;8.526;2022-07-03T15:33:18;100015.53;;;28.68;21.15
27685;BME280;46113;50.130;8.526;2022-07-03T15:35:49;100015.81;;;28.95;20.99
27685;BME280;46113;50.130;8.526;2022-07-03T15:38:20;100015.84;;;28.80;21.17
27685;BME280;46113;50.130;8.526;2022-07-03T15:40:57;100022.91;;;28.74;20.93
27685;BME280;46113;50.130;8.526;2022-07-03T15:51:22;100008.13;;;29.42;20.09
27685;BME280;46113;50.130;8.526;2022-07-03T15:54:22;100022.50;;;28.77;20.65
27685;BME280;46113;50.130;8.526;2022-07-03T15:56:53;100018.25;;;28.68;20.80
27685;BME280;46113;50.130;8.526;2022-07-03T15:59:26;100016.69;;;29.61;20.32
27685;BME280;46113;50.130;8.526;2022-07-03T16:01:54;100013.84;;;29.48;19.65
27685;BME280;46113;50.130;8.526;2022-07-03T16:05:04;100013.66;;;28.90;21.11
27685;BME280;46113;50.130;8.526;2022-07-03T16:07:34;100001.09;;;28.89;20.14
27685;BME280;46113;50.130;8.526;2022-07-03T16:10:12;100003.44;;;29.58;19.60
27685;BME280;46113;50.130;8.526;2022-07-03T16:12:45;99998.66;;;28.58;20.52
27685;BME280;46113;50.130;8.526;2022-07-03T16:15:12;100001.06;;;29.26;20.13
27685;BME280;46113;50.130;8.526;2022-07-03T16:17:39;100000.47;;;29.53;20.46
27685;BME280;46113;50.130;8.526;2022-07-03T16:20:06;100001.75;;;29.79;19.77
27685;BME280;46113;50.130;8.526;2022-07-03T16:22:36;100008.38;;;29.69;18.92
27685;BME280;46113;50.130;8.526;2022-07-03T16:25:05;100001.81;;;29.64;19.77
27685;BME280;46113;50.130;8.526;2022-07-03T16:27:32;100000.94;;;29.35;19.42
27685;BME280;46113;50.130;8.526;2022-07-03T16:37:12;100001.25;;;29.68;19.64
27685;BME280;46113;50.130;8.526;2022-07-03T16:39:43;100003.44;;;29.36;19.47
27685;BME280;46113;50.130;8.526;2022-07-03T16:42:12;99989.84;;;29.36;19.14
27685;BME280;46113;50.130;8.526;2022-07-03T16:45:06;100006.19;;;29.87;19.08
27685;BME280;46113;50.130;8.526;2022-07-03T16:47:37;99998.63;;;29.82;19.34
27685;BME280;46113;50.130;8.526;2022-07-03T16:50:47;99989.25;;;29.41;19.71
27685;BME280;46113;50.130;8.526;2022-07-03T16:53:22;99994.66;;;29.34;19.88
27685;BME280;46113;50.130;8.526;2022-07-03T16:55:49;99992.81;;;28.76;19.92
27685;BME280;46113;50.130;8.526;2022-07-03T16:58:16;99991.69;;;29.57;19.54
27685;BME280;46113;50.130;8.526;2022-07-03T17:00:44;99991.97;;;29.63;19.31
27685;BME280;46113;50.130;8.526;2022-07-03T17:03:12;99991.38;;;29.96;19.26
27685;BME280;46113;50.130;8.526;2022-07-03T17:06:04;99993.22;;;29.60;18.99
27685;BME280;46113;50.130;8.526;2022-07-03T17:08:45;99993.28;;;30.02;18.93
27685;BME280;46113;50.130;8.526;2022-07-03T17:11:41;99980.03;;;29.99;18.92
27685;BME280;46113;50.130;8.526;2022-07-03T17:25:01;99992.59;;;29.93;19.54
27685;BME280;46113;50.130;8.526;2022-07-03T17:31:02;99991.75;;;29.93;19.51
27685;BME280;46113;50.130;8.526;2022-07-03T17:42:28;99996.78;;;29.89;19.26
27685;BME280;46113;50.130;8.526;2022-07-03T17:44:55;99988.91;;;29.51;19.55
27685;BME280;46113;50.130;8.526;2022-07-03T17:47:22;99986.34;;;29.42;19.73
27685;BME280;46113;50.130;8.526;2022-07-03T17:49:51;99990.47;;;29.60;20.09
27685;BME280;46113;50.130;8.526;2022-07-03T17:52:20;99992.94;;;29.83;19.68
27685;BME280;46113;50.130;8.526;2022-07-03T17:54:51;99992.63;;;29.65;19.84
27685;BME280;46113;50.130;8.526;2022-07-03T17:57:19;99987.22;;;29.50;19.95
27685;BME280;46113;50.130;8.526;2022-07-03T18:00:21;99992.00;;;28.60;20.41
27685;BME280;46113;50.130;8.526;2022-07-03T18:02:51;99989.16;;;28.90;20.05
27685;BME280;46113;50.130;8.526;2022-07-03T18:05:19;99978.06;;;28.70;20.66
27685;BME280;46113;50.130;8.526;2022-07-03T18:08:09;99982.47;;;28.71;20.74
27685;BME280;46113;50.130;8.526;2022-07-03T18:10:44;99981.31;;;29.17;20.56
27685;BME280;46113;50.130;8.526;2022-07-03T18:16:36;99984.41;;;28.77;21.71
27685;BME280;46113;50.130;8.526;2022-07-03T18:23:20;99988.72;;;28.20;22.74
27685;BME280;46113;50.130;8.526;2022-07-03T18:29:58;99998.03;;;27.72;24.18
27685;BME280;46113;50.130;8.526;2022-07-03T18:32:59;100007.47;;;27.61;24.86
27685;BME280;46113;50.130;8.526;2022-07-03T18:35:38;100002.13;;;27.68;25.04
27685;BME280;46113;50.130;8.526;2022-07-03T18:38:11;100002.31;;;27.66;25.46
27685;BME280;46113;50.130;8.526;2022-07-03T18:40:39;100006.41;;;27.47;25.93
27685;BME280;46113;50.130;8.526;2022-07-03T18:43:08;100013.81;;;27.06;26.64
27685;BME280;46113;50.130;8.526;2022-07-03T18:45:41;100013.00;;;27.53;26.35